Gale Warning
Issued at: 10:00 AM TODAY , 12 December 2018
Gale Warning # 11 (Intermediate)
For: strong to gale force winds associated with the NORTHEAST MONSOON.

Gale Warning in PDF file





Dams Water Level Update
As of 6 AM ,09 DECEMBER 2018

General Flood Advisories - Regional
 General Flood Advisory issued as of 7 PM, 20 August 2018



Advisories


Monthly Climate Assessment and Outlook (July-August 2018)

Issued: 06 August 2018

Monthly Rainfall Forecast
RAINFALL FORECAST  (September 2018 - February 2019) 
UPDATED: 29 August 2018 (next update September 26, 2018)


Regional Rainfall Forecast
Issued: 29 August 2018
Valid for: September 2018 - February 2019
Farm Weather Forecast and Advisories
ISSUED: 8 AM,  TUESDAY, DECEMBER 11, 2018
VALID UNTIL: 8 AM, WEDNESDAY, DECEMBER
  12, 2018
FWFA:  N0. 18-348

Ten-Day Regional Agri-Weather Information
DEKAD NO. 35   DECEMBER 11 - 20, 2018
PHILIPPINE AGRI-WEATHER FORECAST
The weather systems that will affect the whole country are the northeast monsoon, tail-end of a cold front and easterlies.

Seasonal Climate Outlook
Issued:  13 July 2018
FOR July - December 2018
PDF 




Astronomical Diary
Issue for October 2018
The October Orionids meteor shower will be active from October 17-25, 2017.




   PAGASA webmail  Learning Tools  Bidding 

  Training Activities  Vacancy  Research-and-Development

  Engineering  faqupdate  Publications 
TAF RPLL

112300Z 1200/1306 10008KT 9999 FEW025 TX32/1205Z TN25/1222Z TEMPO 1203/1209 11016KT FEW023 SCT100 TEMPO 1209/1215 FEW025 SCT100=

TAF RPVM

112300Z 1200/1306 03008KT 9999 FEW020 BKN300 TEMPO 1200/1206 04014KT FEW020 SCT100 OVC250 TEMPO 1206/1212 05014KT 9000 -SHRA FEW018CB FEW020 BKN100=

TAF RPLC

112300Z 1200/1306 09006KT 9999 FEW020 BKN300 TX33/1206Z TN24/1222Z TEMPO 1200/1206 36008KT SCT020 BKN300=

TAF RPLB

112300Z 1200/1224 08008KT 9999 FEW020 SCT300 TX32/1206Z TN22/1222Z TEMPO 1200/1206 07010G20KT FEW018 SCT080 BKN300=

TAF RPLI

112300Z 1200/1224 02008KT 9999 FEW018 TEMPO 1204/1210 02010G25KT FEW018 SCT100=

TAF RPVP

112300Z 1200/1224 09008KT 9999 FEW019 TEMPO 1203/1209 09018KT=

TAF RPVD

112300Z 1200/1224 02007KT 9999 SCT015 SCT080 TEMPO 1200/1206 04015KT TEMPO 1206/1212 9000 -SHRA FEW014CBB SCT015 BKN080=

TAF RPMR

112300Z 1200/1224 36006KT 9999 FEW020 SCT250 TEMPO 1200/1206 04012KT=

TAF RPMD

112300Z 1200/1224 01007KT 9999 FEW016 SCT290 TEMPO 1200/1206 02014KT FEW016 BKN090 BKN290=

TAF RPMZ

112300Z 1200/1224 26006KT 9999 FEW017 SCT300 TEMPO 1203/1209 27012KT FEW016CB FEW017 BKN090=


RPLL FORECAST TAKE-OFF CONDITION 
TIME

(UTC)

WIND

(dddffKT)

TEMP

(°C)

QNH

(hPa)

TIME

(UTC)

WIND

(dddffKT)

TEMP

(°C)

QNH

(hPa)

0000

VRB02KT

28.0

1015.0

0400

11009KT

31.5

1014.0

0100

VRB02KT

29.5

1015.0

0500

11010KT

32.0

1013.0

0200

10005KT

30.5

1015.0

0600

11012KT

31.5

1012.5

0300

11007KT

31.0

1014.5

0700

11011KT

31.0

1012.5


ISSUED AT NAIA AMSS-WD/PAGASA-DOST FOR 2300UTC 11 DECEMBER 2018

PREPARED BY:                  MPT 
CHECKED BY:                    CRSED       

PUBLIC WARNING 


It has come to the attention of the Office of the Administrator of PAGASA that a certain person has been using the name of Dr. Vicente B. Malano to solicit money from the contractors of PAGASA.

Dr. Malano wishes to inform the public that he has not authorized anyone to solicit money on his behalf and to warn everyone against dealing with unscrupulous activities of certain individuals.





payong pagasa on android The latest version of the official PAGASA app can now be downloaded on Google play store

Weather Division is now  ISO 9001:2015 Certified
Proof has been furnished by means of an audit that the requirements of ISO 9001:2015 are met.

Read more ...